sensor_id;sensor_type;location;lat;lon;timestamp;pressure;altitude;pressure_sealevel;temperature;humidity
53940;BME280;39850;43.324;21.916;2023-03-13T00:17:40;997.0;;;1.8;66.0
53940;BME280;39850;43.324;21.916;2023-03-13T00:22:17;997.0;;;1.8;66.0
53940;BME280;39850;43.324;21.916;2023-03-13T00:26:55;997.0;;;1.7;66.0
53940;BME280;39850;43.324;21.916;2023-03-13T00:31:32;997.0;;;1.7;66.0
53940;BME280;39850;43.324;21.916;2023-03-13T00:36:18;997.0;;;1.7;66.0
53940;BME280;39850;43.324;21.916;2023-03-13T00:41:06;997.0;;;1.7;66.0
53940;BME280;39850;43.324;21.916;2023-03-13T00:45:43;997.0;;;1.6;67.0
53940;BME280;39850;43.324;21.916;2023-03-13T00:50:20;997.0;;;1.6;67.0
53940;BME280;39850;43.324;21.916;2023-03-13T00:54:56;997.0;;;1.6;67.0
53940;BME280;39850;43.324;21.916;2023-03-13T01:36:37;997.0;;;0.7;68.0
53940;BME280;39850;43.324;21.916;2023-03-13T01:41:15;997.0;;;0.7;68.0
53940;BME280;39850;43.324;21.916;2023-03-13T01:46:13;997.0;;;0.7;68.0
53940;BME280;39850;43.324;21.916;2023-03-13T01:51:01;997.0;;;0.7;68.0
53940;BME280;39850;43.324;21.916;2023-03-13T01:55:46;997.0;;;0.7;68.0
53940;BME280;39850;43.324;21.916;2023-03-13T02:00:36;997.0;;;0.7;68.0
53940;BME280;39850;43.324;21.916;2023-03-13T02:58:11;998.0;;;0.8;69.0
53940;BME280;39850;43.324;21.916;2023-03-13T03:02:47;998.0;;;0.8;69.0
53940;BME280;39850;43.324;21.916;2023-03-13T03:07:24;998.0;;;0.8;69.0
53940;BME280;39850;43.324;21.916;2023-03-13T03:12:01;998.0;;;0.8;69.0
53940;BME280;39850;43.324;21.916;2023-03-13T03:16:40;998.0;;;0.8;69.0
53940;BME280;39850;43.324;21.916;2023-03-13T03:21:16;998.0;;;0.8;69.0
53940;BME280;39850;43.324;21.916;2023-03-13T06:48:51;999.0;;;1.6;69.0
53940;BME280;39850;43.324;21.916;2023-03-13T06:53:28;999.0;;;1.6;69.0
53940;BME280;39850;43.324;21.916;2023-03-13T06:58:04;999.0;;;1.6;69.0
53940;BME280;39850;43.324;21.916;2023-03-13T07:02:41;999.0;;;1.6;69.0
53940;BME280;39850;43.324;21.916;2023-03-13T07:07:17;999.0;;;1.6;69.0
53940;BME280;39850;43.324;21.916;2023-03-13T07:11:54;999.0;;;1.6;69.0
53940;BME280;39850;43.324;21.916;2023-03-13T08:07:43;1000.0;;;8.9;50.0
53940;BME280;39850;43.324;21.916;2023-03-13T08:12:19;1000.0;;;8.9;50.0
53940;BME280;39850;43.324;21.916;2023-03-13T08:16:56;1000.0;;;8.9;50.0
53940;BME280;39850;43.324;21.916;2023-03-13T08:21:36;1000.0;;;8.9;50.0
53940;BME280;39850;43.324;21.916;2023-03-13T08:26:19;1000.0;;;8.9;50.0
53940;BME280;39850;43.324;21.916;2023-03-13T08:31:11;1000.0;;;8.9;50.0
53940;BME280;39850;43.324;21.916;2023-03-13T08:35:52;1000.0;;;8.9;50.0
53940;BME280;39850;43.324;21.916;2023-03-13T09:40:54;998.0;;;11.6;41.0
53940;BME280;39850;43.324;21.916;2023-03-13T09:45:45;998.0;;;11.6;41.0
53940;BME280;39850;43.324;21.916;2023-03-13T09:50:41;998.0;;;11.4;41.0
53940;BME280;39850;43.324;21.916;2023-03-13T09:55:35;998.0;;;11.4;41.0
53940;BME280;39850;43.324;21.916;2023-03-13T10:00:36;998.0;;;11.4;41.0
53940;BME280;39850;43.324;21.916;2023-03-13T10:05:27;998.0;;;11.4;41.0
53940;BME280;39850;43.324;21.916;2023-03-13T10:10:20;998.0;;;11.1;42.0
53940;BME280;39850;43.324;21.916;2023-03-13T10:15:52;998.0;;;11.1;42.0
53940;BME280;39850;43.324;21.916;2023-03-13T12:11:07;996.0;;;10.8;39.0
53940;BME280;39850;43.324;21.916;2023-03-13T12:16:08;996.0;;;10.8;39.0
53940;BME280;39850;43.324;21.916;2023-03-13T12:21:16;996.0;;;10.8;38.0
53940;BME280;39850;43.324;21.916;2023-03-13T12:26:15;996.0;;;10.8;38.0
53940;BME280;39850;43.324;21.916;2023-03-13T12:31:27;996.0;;;10.8;38.0
53940;BME280;39850;43.324;21.916;2023-03-13T12:36:40;996.0;;;10.8;38.0
53940;BME280;39850;43.324;21.916;2023-03-13T12:41:43;996.0;;;10.8;37.0
53940;BME280;39850;43.324;21.916;2023-03-13T12:47:07;996.0;;;10.8;37.0
53940;BME280;39850;43.324;21.916;2023-03-13T12:53:09;996.0;;;10.7;36.0
53940;BME280;39850;43.324;21.916;2023-03-13T13:48:36;995.0;;;11.7;24.0
53940;BME280;39850;43.324;21.916;2023-03-13T13:53:48;995.0;;;11.7;24.0
53940;BME280;39850;43.324;21.916;2023-03-13T13:58:38;995.0;;;11.7;24.0
53940;BME280;39850;43.324;21.916;2023-03-13T14:03:31;995.0;;;11.7;24.0
53940;BME280;39850;43.324;21.916;2023-03-13T14:08:30;995.0;;;11.7;24.0
53940;BME280;39850;43.324;21.916;2023-03-13T14:13:18;995.0;;;11.7;24.0
53940;BME280;39850;43.324;21.916;2023-03-13T14:51:27;994.0;;;12.7;24.0
53940;BME280;39850;43.324;21.916;2023-03-13T14:56:18;994.0;;;12.7;24.0
53940;BME280;39850;43.324;21.916;2023-03-13T15:00:56;994.0;;;12.7;24.0
53940;BME280;39850;43.324;21.916;2023-03-13T15:05:34;994.0;;;12.7;24.0
53940;BME280;39850;43.324;21.916;2023-03-13T15:10:35;994.0;;;12.7;24.0
53940;BME280;39850;43.324;21.916;2023-03-13T15:15:12;994.0;;;12.7;24.0
53940;BME280;39850;43.324;21.916;2023-03-13T15:19:58;994.0;;;12.7;24.0
53940;BME280;39850;43.324;21.916;2023-03-13T15:24:35;994.0;;;12.7;24.0
53940;BME280;39850;43.324;21.916;2023-03-13T15:29:12;994.0;;;12.7;24.0
53940;BME280;39850;43.324;21.916;2023-03-13T15:34:00;994.0;;;12.7;24.0
53940;BME280;39850;43.324;21.916;2023-03-13T16:11:16;994.0;;;12.7;28.0
53940;BME280;39850;43.324;21.916;2023-03-13T16:15:53;994.0;;;12.7;28.0
53940;BME280;39850;43.324;21.916;2023-03-13T16:20:34;994.0;;;12.7;28.0
53940;BME280;39850;43.324;21.916;2023-03-13T16:25:14;994.0;;;12.7;28.0
53940;BME280;39850;43.324;21.916;2023-03-13T16:29:51;994.0;;;12.7;28.0
53940;BME280;39850;43.324;21.916;2023-03-13T16:34:27;994.0;;;12.7;28.0
53940;BME280;39850;43.324;21.916;2023-03-13T16:39:15;994.0;;;12.7;28.0
53940;BME280;39850;43.324;21.916;2023-03-13T16:43:52;994.0;;;12.7;28.0
53940;BME280;39850;43.324;21.916;2023-03-13T16:48:29;994.0;;;12.7;28.0
53940;BME280;39850;43.324;21.916;2023-03-13T16:53:05;994.0;;;12.7;28.0
53940;BME280;39850;43.324;21.916;2023-03-13T16:57:42;994.0;;;12.7;28.0
53940;BME280;39850;43.324;21.916;2023-03-13T17:30:30;994.0;;;10.7;33.0
53940;BME280;39850;43.324;21.916;2023-03-13T17:35:08;994.0;;;10.7;33.0
53940;BME280;39850;43.324;21.916;2023-03-13T17:39:49;994.0;;;10.8;34.0
53940;BME280;39850;43.324;21.916;2023-03-13T17:44:26;994.0;;;10.8;34.0
53940;BME280;39850;43.324;21.916;2023-03-13T17:49:05;994.0;;;10.9;35.0
53940;BME280;39850;43.324;21.916;2023-03-13T17:53:42;994.0;;;10.9;35.0
53940;BME280;39850;43.324;21.916;2023-03-13T17:58:19;994.0;;;10.9;35.0
53940;BME280;39850;43.324;21.916;2023-03-13T18:02:57;994.0;;;10.9;35.0
53940;BME280;39850;43.324;21.916;2023-03-13T18:07:35;994.0;;;10.9;35.0
53940;BME280;39850;43.324;21.916;2023-03-13T18:12:14;994.0;;;10.9;36.0
53940;BME280;39850;43.324;21.916;2023-03-13T18:16:51;994.0;;;10.9;36.0
53940;BME280;39850;43.324;21.916;2023-03-13T18:59:15;994.0;;;8.7;42.0
53940;BME280;39850;43.324;21.916;2023-03-13T19:03:53;994.0;;;8.7;42.0
53940;BME280;39850;43.324;21.916;2023-03-13T19:08:29;994.0;;;8.7;42.0
53940;BME280;39850;43.324;21.916;2023-03-13T19:13:06;994.0;;;8.7;42.0
53940;BME280;39850;43.324;21.916;2023-03-13T19:17:43;994.0;;;8.7;42.0
53940;BME280;39850;43.324;21.916;2023-03-13T19:22:19;994.0;;;8.7;42.0
53940;BME280;39850;43.324;21.916;2023-03-13T19:26:56;994.0;;;8.7;42.0
53940;BME280;39850;43.324;21.916;2023-03-13T20:22:23;994.0;;;7.3;47.0
53940;BME280;39850;43.324;21.916;2023-03-13T20:27:03;994.0;;;7.3;47.0
53940;BME280;39850;43.324;21.916;2023-03-13T20:31:39;994.0;;;7.3;47.0
53940;BME280;39850;43.324;21.916;2023-03-13T20:36:22;994.0;;;7.3;47.0
53940;BME280;39850;43.324;21.916;2023-03-13T20:40:59;994.0;;;7.3;47.0
53940;BME280;39850;43.324;21.916;2023-03-13T20:45:35;994.0;;;7.3;47.0
53940;BME280;39850;43.324;21.916;2023-03-13T20:50:12;994.0;;;7.3;46.0
53940;BME280;39850;43.324;21.916;2023-03-13T20:54:48;994.0;;;7.3;46.0
53940;BME280;39850;43.324;21.916;2023-03-13T21:17:51;994.0;;;5.3;52.0
53940;BME280;39850;43.324;21.916;2023-03-13T21:22:27;994.0;;;5.3;52.0
53940;BME280;39850;43.324;21.916;2023-03-13T21:27:04;994.0;;;5.3;52.0
53940;BME280;39850;43.324;21.916;2023-03-13T21:31:40;994.0;;;5.8;51.0
53940;BME280;39850;43.324;21.916;2023-03-13T21:36:21;994.0;;;5.8;51.0
53940;BME280;39850;43.324;21.916;2023-03-13T21:40:58;994.0;;;6.3;50.0
53940;BME280;39850;43.324;21.916;2023-03-13T21:45:34;994.0;;;6.3;50.0
53940;BME280;39850;43.324;21.916;2023-03-13T21:50:11;994.0;;;6.4;50.0
53940;BME280;39850;43.324;21.916;2023-03-13T21:54:48;994.0;;;6.4;50.0
53940;BME280;39850;43.324;21.916;2023-03-13T21:59:25;994.0;;;6.4;50.0
53940;BME280;39850;43.324;21.916;2023-03-13T22:04:01;994.0;;;6.4;50.0
53940;BME280;39850;43.324;21.916;2023-03-13T22:41:02;993.0;;;6.4;44.0
53940;BME280;39850;43.324;21.916;2023-03-13T22:45:39;993.0;;;6.4;44.0
53940;BME280;39850;43.324;21.916;2023-03-13T22:50:17;993.0;;;5.9;45.0
53940;BME280;39850;43.324;21.916;2023-03-13T22:54:54;993.0;;;5.9;45.0
53940;BME280;39850;43.324;21.916;2023-03-13T22:59:30;993.0;;;5.4;46.0
53940;BME280;39850;43.324;21.916;2023-03-13T23:04:07;993.0;;;5.4;46.0
53940;BME280;39850;43.324;21.916;2023-03-13T23:08:43;993.0;;;5.4;46.0
53940;BME280;39850;43.324;21.916;2023-03-13T23:13:21;993.0;;;5.4;46.0
53940;BME280;39850;43.324;21.916;2023-03-13T23:17:58;993.0;;;5.3;46.0
53940;BME280;39850;43.324;21.916;2023-03-13T23:22:34;993.0;;;5.3;46.0
53940;BME280;39850;43.324;21.916;2023-03-13T23:27:11;993.0;;;5.3;46.0
53940;BME280;39850;43.324;21.916;2023-03-13T23:59:38;993.0;;;5.9;46.0
